Time;durP1;ratioP1;P1;durP2;ratioP2;P2;SDS_P1;SDS_P2;PMS_P1;PMS_P2;Temp;Humidity;BMP_temperature;BMP_pressure;BME280_temperature;BME280_humidity;BME280_pressure;Samples;Min_cycle;Max_cycle;Signal;HPM_P1;HPM_P2
2021/12/28 00:00:17;;;;;;;10.20;6.30;;;7.40;99.90;;;;;;6161358;22;92897;-74
2021/12/28 00:02:47;;;;;;;6.95;5.05;;;7.50;99.90;;;;;;6188526;22;89233;-74
2021/12/28 00:05:14;;;;;;;6.50;4.47;;;7.50;99.90;;;;;;6188456;22;89410;-74
2021/12/28 00:07:41;;;;;;;6.80;4.30;;;7.50;99.90;;;;;;6188667;22;90293;-74
2021/12/28 00:10:09;;;;;;;6.88;4.43;;;7.50;99.90;;;;;;6188221;22;89499;-74
2021/12/28 00:12:37;;;;;;;8.27;4.05;;;7.50;99.90;;;;;;6188187;22;89196;-74
2021/12/28 00:15:18;;;;;;;7.03;3.70;;;7.50;99.90;;;;;;6188795;22;89795;-74
2021/12/28 00:18:02;;;;;;;8.20;3.70;;;7.40;99.90;;;;;;6188384;22;89271;-74
2021/12/28 00:20:31;;;;;;;5.93;3.75;;;7.40;99.90;;;;;;6160606;22;91844;-74
2021/12/28 00:22:58;;;;;;;7.32;3.58;;;7.30;99.90;;;;;;6188046;22;90143;-74
2021/12/28 00:25:23;;;;;;;7.40;3.53;;;7.20;99.90;;;;;;6188471;22;89708;-74
2021/12/28 00:27:50;;;;;;;5.43;3.08;;;7.30;99.90;;;;;;6188317;22;89178;-74
2021/12/28 00:30:15;;;;;;;8.55;3.47;;;7.40;99.90;;;;;;6187393;22;89285;-74
2021/12/28 00:32:41;;;;;;;6.32;2.88;;;7.40;99.90;;;;;;6187379;22;89549;-74
2021/12/28 00:35:07;;;;;;;8.27;3.20;;;7.50;99.90;;;;;;6160092;22;91572;-74
2021/12/28 00:37:33;;;;;;;6.78;3.20;;;7.50;99.90;;;;;;6188454;22;89217;-75
2021/12/28 00:39:58;;;;;;;5.60;2.40;;;7.60;99.90;;;;;;6188342;22;88944;-74
2021/12/28 00:42:24;;;;;;;10.38;3.33;;;7.60;99.90;;;;;;6188349;22;89258;-74
2021/12/28 00:44:50;;;;;;;7.63;2.63;;;7.60;99.90;;;;;;6188254;22;89719;-74
2021/12/28 00:47:15;;;;;;;6.65;2.97;;;7.70;99.90;;;;;;6187696;22;91035;-74
2021/12/28 00:49:41;;;;;;;7.28;2.35;;;7.70;99.90;;;;;;6188016;22;90950;-74
2021/12/28 00:52:07;;;;;;;7.50;2.92;;;7.70;99.90;;;;;;6188410;22;89264;-74
2021/12/28 00:54:32;;;;;;;8.38;2.67;;;7.70;99.90;;;;;;6188168;22;90062;-74
2021/12/28 00:56:58;;;;;;;6.72;2.55;;;7.70;99.90;;;;;;6188501;22;89059;-74
2021/12/28 00:59:24;;;;;;;8.18;2.30;;;7.70;99.90;;;;;;6187775;22;89091;-74
2021/12/28 01:01:49;;;;;;;10.73;2.65;;;7.70;99.90;;;;;;6187909;22;89128;-74
2021/12/28 01:04:15;;;;;;;7.90;2.38;;;7.70;99.90;;;;;;6188420;22;88910;-74
2021/12/28 01:06:41;;;;;;;5.72;2.20;;;7.80;99.90;;;;;;6160429;22;89185;-74
2021/12/28 01:09:07;;;;;;;6.82;2.17;;;7.80;99.90;;;;;;6160953;22;91688;-74
2021/12/28 01:11:32;;;;;;;7.05;2.47;;;7.70;99.90;;;;;;6187930;22;90561;-74
2021/12/28 01:13:58;;;;;;;9.73;2.50;;;7.70;99.90;;;;;;6187855;22;89153;-74
2021/12/28 01:16:24;;;;;;;6.90;2.50;;;7.70;99.90;;;;;;6188202;22;90013;-74
2021/12/28 01:18:49;;;;;;;8.13;2.55;;;7.60;99.90;;;;;;6188362;22;89092;-74
2021/12/28 01:21:15;;;;;;;8.05;2.40;;;7.50;99.90;;;;;;6188542;22;89176;-74
2021/12/28 01:23:40;;;;;;;9.50;2.22;;;7.50;99.90;;;;;;6160786;22;92665;-74
2021/12/28 01:26:06;;;;;;;15.55;2.50;;;7.40;99.90;;;;;;6188186;22;89297;-74
2021/12/28 01:28:32;;;;;;;11.93;2.78;;;7.30;99.90;;;;;;6188712;22;89656;-74
2021/12/28 01:30:57;;;;;;;11.57;2.10;;;7.20;99.90;;;;;;6187813;22;89334;-74
2021/12/28 01:33:23;;;;;;;13.43;2.60;;;7.30;99.90;;;;;;6188013;22;89805;-74
2021/12/28 01:35:50;;;;;;;14.80;2.40;;;7.20;99.90;;;;;;6187419;22;91926;-74
2021/12/28 01:38:16;;;;;;;13.82;2.50;;;7.20;99.90;;;;;;6188125;22;90309;-74
2021/12/28 01:40:42;;;;;;;16.98;3.22;;;7.20;99.90;;;;;;6161209;22;89193;-74
2021/12/28 01:43:22;;;;;;;13.52;2.78;;;7.30;99.90;;;;;;6159928;22;91775;-74
2021/12/28 01:45:52;;;;;;;10.52;2.58;;;7.40;99.90;;;;;;6188139;22;89254;-74
2021/12/28 01:48:22;;;;;;;14.70;2.72;;;7.40;99.90;;;;;;6187051;22;89654;-74
2021/12/28 01:50:51;;;;;;;18.77;2.97;;;7.30;99.90;;;;;;6188091;22;89166;-74
2021/12/28 01:53:17;;;;;;;15.23;2.67;;;7.30;99.90;;;;;;6160378;22;91719;-74
2021/12/28 01:55:46;;;;;;;14.30;2.70;;;7.20;99.90;;;;;;6188117;22;90301;-74
2021/12/28 01:58:12;;;;;;;13.15;2.70;;;7.20;99.90;;;;;;6188036;22;89250;-74
2021/12/28 02:00:40;;;;;;;10.27;2.88;;;7.20;99.90;;;;;;6187664;22;90146;-74
2021/12/28 02:03:11;;;;;;;13.30;2.63;;;7.30;99.90;;;;;;6188142;22;89314;-74
2021/12/28 02:05:38;;;;;;;21.30;3.42;;;7.40;99.90;;;;;;6188445;22;89220;-74
2021/12/28 02:08:05;;;;;;;14.50;3.00;;;7.30;99.90;;;;;;6188107;22;89074;-74
2021/12/28 02:10:31;;;;;;;15.85;2.67;;;7.30;99.90;;;;;;6188350;22;89742;-74
2021/12/28 02:12:57;;;;;;;15.02;3.03;;;7.20;99.90;;;;;;6187431;22;89898;-74
2021/12/28 02:15:22;;;;;;;15.77;2.90;;;7.10;99.90;;;;;;6187961;22;90441;-74
2021/12/28 02:17:48;;;;;;;18.35;3.05;;;7.10;99.90;;;;;;6188763;22;88814;-74
2021/12/28 02:20:19;;;;;;;13.68;2.30;;;7.20;99.90;;;;;;6187890;22;89299;-74
2021/12/28 02:22:44;;;;;;;20.17;3.95;;;7.10;99.90;;;;;;6187709;22;89308;-74
2021/12/28 02:25:11;;;;;;;17.15;2.63;;;7.10;99.90;;;;;;6160311;22;91811;-74
2021/12/28 02:27:37;;;;;;;14.68;2.47;;;7.20;99.90;;;;;;6186574;22;89210;-74
2021/12/28 02:30:06;;;;;;;14.63;2.72;;;7.30;99.90;;;;;;6187282;22;89221;-74
2021/12/28 02:32:31;;;;;;;19.38;3.00;;;7.30;99.90;;;;;;6187351;22;89275;-74
2021/12/28 02:34:57;;;;;;;14.05;2.83;;;7.20;99.90;;;;;;6188178;22;89883;-74
2021/12/28 02:37:23;;;;;;;14.15;3.40;;;7.20;99.90;;;;;;6160615;22;92247;-74
2021/12/28 02:39:50;;;;;;;15.73;2.90;;;7.10;99.90;;;;;;6188172;22;89655;-74
2021/12/28 02:42:17;;;;;;;14.95;2.70;;;6.90;99.90;;;;;;6187411;22;88960;-74
2021/12/28 02:44:43;;;;;;;13.40;2.15;;;6.80;99.90;;;;;;6187538;22;91630;-74
2021/12/28 02:47:08;;;;;;;12.55;3.05;;;6.90;99.90;;;;;;6160527;22;91368;-74
2021/12/28 02:49:37;;;;;;;13.95;2.60;;;6.80;99.90;;;;;;6186956;22;90308;-74
2021/12/28 02:52:09;;;;;;;12.88;2.80;;;6.80;99.90;;;;;;6160354;22;92395;-74
2021/12/28 02:54:36;;;;;;;10.60;2.38;;;6.90;99.90;;;;;;6188039;22;89159;-74
2021/12/28 02:57:02;;;;;;;14.73;2.67;;;6.80;99.90;;;;;;6187478;22;89773;-74
2021/12/28 02:59:27;;;;;;;15.80;2.58;;;6.90;99.90;;;;;;6187668;22;89561;-74
2021/12/28 03:01:53;;;;;;;16.00;3.35;;;6.80;99.90;;;;;;6187527;22;89149;-74
2021/12/28 03:04:23;;;;;;;13.90;2.22;;;6.80;99.90;;;;;;6187383;22;89113;-74
2021/12/28 03:06:48;;;;;;;15.32;2.53;;;6.80;99.90;;;;;;6188114;22;88907;-74
2021/12/28 03:09:15;;;;;;;13.98;2.45;;;6.90;99.90;;;;;;6187464;22;89204;-74
2021/12/28 03:11:41;;;;;;;13.93;2.90;;;6.90;99.90;;;;;;6187366;22;89241;-74
2021/12/28 03:14:07;;;;;;;15.20;2.78;;;6.90;99.90;;;;;;6186868;22;90531;-74
2021/12/28 03:16:33;;;;;;;14.23;3.17;;;7.00;99.90;;;;;;6187613;22;89710;-74
2021/12/28 03:18:59;;;;;;;13.07;2.55;;;7.00;99.90;;;;;;6187494;22;89166;-74
2021/12/28 03:21:25;;;;;;;12.65;2.08;;;7.10;99.90;;;;;;6187298;22;89647;-74
2021/12/28 03:23:52;;;;;;;15.02;2.63;;;7.00;99.90;;;;;;6187133;22;89746;-74
2021/12/28 03:26:18;;;;;;;19.25;2.55;;;7.00;99.90;;;;;;6187329;22;90097;-74
2021/12/28 03:28:44;;;;;;;13.35;2.33;;;7.00;99.90;;;;;;6187399;22;89848;-74
2021/12/28 03:31:13;;;;;;;20.88;2.90;;;7.00;99.90;;;;;;6187786;22;91128;-74
2021/12/28 03:33:41;;;;;;;12.55;2.55;;;7.10;99.90;;;;;;6187224;22;89980;-74
2021/12/28 03:36:07;;;;;;;9.85;2.22;;;7.30;99.90;;;;;;6187302;22;89125;-74
2021/12/28 03:38:35;;;;;;;14.13;2.45;;;7.30;99.90;;;;;;6186843;22;90245;-74
2021/12/28 03:41:02;;;;;;;15.68;2.67;;;7.20;99.90;;;;;;6187230;22;89228;-74
2021/12/28 03:43:28;;;;;;;16.05;2.95;;;7.30;99.90;;;;;;6159477;22;91908;-74
2021/12/28 03:45:53;;;;;;;17.83;2.83;;;7.40;99.90;;;;;;6187262;22;89562;-74
2021/12/28 03:48:19;;;;;;;16.27;3.03;;;7.40;99.90;;;;;;6187710;22;89120;-74
2021/12/28 03:50:45;;;;;;;15.88;2.80;;;7.50;99.90;;;;;;6187076;22;89906;-74
2021/12/28 03:53:11;;;;;;;13.00;1.85;;;7.50;99.90;;;;;;6187355;22;89969;-74
2021/12/28 03:55:37;;;;;;;13.85;2.78;;;7.50;99.90;;;;;;6161171;22;90425;-74
2021/12/28 03:58:04;;;;;;;11.52;2.15;;;7.50;99.90;;;;;;6188950;22;89206;-74
2021/12/28 04:00:36;;;;;;;14.90;2.30;;;7.40;99.90;;;;;;6188070;22;89418;-74
2021/12/28 04:03:02;;;;;;;14.07;2.30;;;7.40;99.90;;;;;;6187693;22;91346;-74
2021/12/28 04:05:28;;;;;;;8.70;2.10;;;7.50;99.90;;;;;;6188497;22;90383;-74
2021/12/28 04:07:53;;;;;;;13.30;2.58;;;7.60;99.90;;;;;;6188904;22;89080;-74
2021/12/28 04:10:28;;;;;;;16.23;2.60;;;7.70;99.90;;;;;;6188212;22;89218;-74
2021/12/28 04:12:54;;;;;;;9.88;1.88;;;7.60;99.90;;;;;;6161314;22;92461;-74
2021/12/28 04:15:19;;;;;;;14.77;2.22;;;7.60;99.90;;;;;;6188765;22;89252;-74
2021/12/28 04:17:45;;;;;;;13.93;2.75;;;7.60;99.90;;;;;;6189008;22;89480;-74
2021/12/28 04:20:15;;;;;;;11.98;1.98;;;7.60;99.90;;;;;;6188851;22;88823;-74
2021/12/28 04:22:41;;;;;;;13.25;2.00;;;7.60;99.90;;;;;;6160953;22;91636;-74
2021/12/28 04:25:08;;;;;;;15.27;2.05;;;7.70;99.90;;;;;;6188789;22;89138;-74
2021/12/28 04:27:34;;;;;;;9.52;2.00;;;7.90;99.90;;;;;;6186868;22;90151;-74
2021/12/28 04:30:00;;;;;;;13.57;2.03;;;7.90;99.90;;;;;;6188589;22;90161;-74
2021/12/28 04:32:25;;;;;;;12.07;2.28;;;7.90;99.90;;;;;;6188077;22;89193;-74
2021/12/28 04:34:51;;;;;;;16.13;2.10;;;7.80;99.90;;;;;;6188710;22;89593;-74
2021/12/28 04:37:16;;;;;;;12.18;2.22;;;7.90;99.90;;;;;;6188726;22;89190;-74
2021/12/28 04:39:42;;;;;;;12.50;2.10;;;7.90;99.90;;;;;;6188486;22;90678;-74
2021/12/28 04:42:08;;;;;;;10.80;1.60;;;7.90;99.90;;;;;;6188217;22;89136;-74
2021/12/28 04:44:34;;;;;;;13.27;2.33;;;8.00;99.90;;;;;;6188879;22;89456;-74
2021/12/28 04:46:59;;;;;;;14.40;2.38;;;7.90;99.90;;;;;;6188739;22;89118;-74
2021/12/28 04:49:27;;;;;;;9.55;2.00;;;8.00;99.90;;;;;;6188068;22;89328;-74
2021/12/28 04:51:53;;;;;;;8.32;2.10;;;8.00;99.90;;;;;;6187700;22;90625;-74
2021/12/28 04:54:19;;;;;;;10.23;2.35;;;8.10;99.90;;;;;;6160865;22;93419;-74
2021/12/28 04:56:46;;;;;;;11.00;1.95;;;8.00;99.90;;;;;;6188587;22;89225;-74
2021/12/28 04:59:12;;;;;;;11.27;2.08;;;8.00;99.90;;;;;;6188095;22;89415;-74
2021/12/28 05:01:38;;;;;;;13.35;2.05;;;7.90;99.90;;;;;;6188237;22;89829;-74
2021/12/28 05:04:05;;;;;;;6.95;1.85;;;8.00;99.90;;;;;;6187629;22;89565;-74
2021/12/28 05:06:32;;;;;;;11.13;1.92;;;8.00;99.90;;;;;;6188771;22;89168;-74
2021/12/28 05:08:57;;;;;;;6.97;1.88;;;7.90;99.90;;;;;;6188442;22;89068;-74
2021/12/28 05:11:23;;;;;;;9.20;1.85;;;7.80;99.90;;;;;;6188185;22;89245;-74
2021/12/28 05:13:49;;;;;;;11.85;1.75;;;7.70;99.90;;;;;;6187835;22;89625;-74
2021/12/28 05:16:16;;;;;;;10.60;2.17;;;7.70;99.90;;;;;;6160935;22;90273;-74
2021/12/28 05:18:41;;;;;;;6.22;2.10;;;7.60;99.90;;;;;;6187832;22;89336;-74
2021/12/28 05:21:07;;;;;;;8.65;2.03;;;7.60;99.90;;;;;;6188299;22;90244;-74
2021/12/28 05:23:33;;;;;;;7.07;2.00;;;7.50;99.90;;;;;;6188022;22;91061;-74
2021/12/28 05:25:59;;;;;;;12.60;2.05;;;7.50;99.90;;;;;;6188485;22;89097;-74
2021/12/28 05:28:25;;;;;;;9.85;1.92;;;7.50;99.90;;;;;;6188345;22;89495;-74
2021/12/28 05:30:51;;;;;;;11.27;1.90;;;7.50;99.90;;;;;;6188564;22;89229;-74
2021/12/28 05:33:17;;;;;;;10.48;1.85;;;7.40;99.90;;;;;;6188160;22;89958;-74
2021/12/28 05:35:43;;;;;;;8.63;1.90;;;7.40;99.90;;;;;;6161262;22;89168;-74
2021/12/28 05:38:08;;;;;;;10.25;2.30;;;7.40;99.90;;;;;;6187981;22;89946;-74
2021/12/28 05:40:34;;;;;;;12.95;2.10;;;7.40;99.90;;;;;;6160220;22;93592;-74
2021/12/28 05:43:00;;;;;;;10.20;2.00;;;7.40;99.90;;;;;;6187653;22;90785;-74
2021/12/28 05:45:25;;;;;;;14.77;2.28;;;7.40;99.90;;;;;;6188470;22;89225;-74
2021/12/28 05:47:51;;;;;;;7.30;1.90;;;7.40;99.90;;;;;;6188110;22;89504;-74
2021/12/28 05:50:17;;;;;;;11.25;2.10;;;7.40;99.90;;;;;;6187807;22;89209;-74
2021/12/28 05:52:42;;;;;;;11.43;1.80;;;7.40;99.90;;;;;;6159596;22;90448;-74
2021/12/28 05:55:08;;;;;;;10.45;1.90;;;7.40;99.90;;;;;;6188419;22;89233;-74
2021/12/28 05:57:34;;;;;;;10.88;2.20;;;7.40;99.90;;;;;;6188539;22;88884;-74
2021/12/28 05:59:59;;;;;;;8.55;2.17;;;7.40;99.90;;;;;;6187907;22;89436;-74
2021/12/28 06:02:25;;;;;;;12.20;2.00;;;7.40;99.90;;;;;;6187923;22;89181;-74
2021/12/28 06:04:50;;;;;;;10.10;2.10;;;7.30;99.90;;;;;;6188359;22;90114;-74
2021/12/28 06:07:16;;;;;;;13.02;2.90;;;7.30;99.90;;;;;;6188248;22;90120;-74
2021/12/28 06:09:42;;;;;;;10.32;2.40;;;7.40;99.90;;;;;;6160468;22;90614;-74
2021/12/28 06:12:08;;;;;;;7.97;2.03;;;7.30;99.90;;;;;;6187742;22;89795;-74
2021/12/28 06:14:34;;;;;;;10.95;2.50;;;7.40;99.90;;;;;;6159945;22;89317;-74
2021/12/28 06:16:59;;;;;;;10.57;2.58;;;7.40;99.90;;;;;;6187410;22;89234;-74
2021/12/28 06:19:25;;;;;;;6.25;1.70;;;7.40;99.90;;;;;;6187992;22;89278;-74
2021/12/28 06:21:50;;;;;;;11.18;2.58;;;7.40;99.90;;;;;;6188630;22;89052;-74
2021/12/28 06:24:16;;;;;;;8.93;1.95;;;7.40;99.90;;;;;;6188235;22;89290;-74
2021/12/28 06:26:42;;;;;;;6.28;1.90;;;7.40;99.90;;;;;;6188058;22;89264;-74
2021/12/28 06:29:08;;;;;;;12.85;2.92;;;7.40;99.90;;;;;;6186433;22;92705;-74
2021/12/28 06:31:35;;;;;;;7.40;2.10;;;7.40;99.90;;;;;;6187582;22;90726;-74
2021/12/28 06:34:02;;;;;;;10.68;1.98;;;7.40;99.90;;;;;;6160643;22;89298;-74
2021/12/28 06:36:29;;;;;;;8.00;2.85;;;7.40;99.90;;;;;;6187947;22;89432;-74
2021/12/28 06:38:54;;;;;;;11.02;3.90;;;7.40;99.90;;;;;;6160211;22;90418;-74
2021/12/28 06:41:21;;;;;;;9.48;3.20;;;7.40;99.90;;;;;;6187929;22;89264;-74
2021/12/28 06:43:49;;;;;;;11.93;3.45;;;7.40;99.90;;;;;;6187852;22;89451;-74
2021/12/28 06:46:15;;;;;;;10.93;2.40;;;7.40;99.90;;;;;;6188156;22;89894;-74
2021/12/28 06:48:41;;;;;;;8.80;2.03;;;7.40;99.90;;;;;;6187431;22;90261;-74
2021/12/28 06:51:07;;;;;;;6.15;2.30;;;7.40;99.90;;;;;;6187552;22;89361;-74
2021/12/28 06:53:33;;;;;;;13.10;3.10;;;7.40;99.90;;;;;;6187036;22;90114;-74
2021/12/28 06:55:59;;;;;;;10.13;2.83;;;7.40;99.90;;;;;;6159955;22;91962;-74
2021/12/28 06:58:24;;;;;;;6.65;1.95;;;7.40;99.90;;;;;;6187817;22;90008;-74
2021/12/28 07:00:50;;;;;;;11.43;2.55;;;7.40;99.90;;;;;;6160379;22;92518;-74
2021/12/28 07:03:16;;;;;;;9.10;2.90;;;7.40;99.90;;;;;;6187738;22;89436;-74
2021/12/28 07:05:41;;;;;;;12.57;3.28;;;7.40;99.90;;;;;;6187596;22;89163;-74
2021/12/28 07:08:07;;;;;;;10.32;4.50;;;7.50;99.90;;;;;;6187726;22;89420;-74
2021/12/28 07:10:33;;;;;;;9.32;3.15;;;7.40;99.90;;;;;;6187832;22;88912;-74
2021/12/28 07:12:58;;;;;;;9.60;3.88;;;7.50;99.90;;;;;;6187453;22;89252;-74
2021/12/28 07:15:24;;;;;;;10.65;3.90;;;7.50;99.90;;;;;;6187602;22;89743;-74
2021/12/28 07:17:50;;;;;;;10.25;3.28;;;7.50;99.90;;;;;;6187152;22;90206;-74
2021/12/28 07:20:16;;;;;;;8.38;3.33;;;7.50;99.90;;;;;;6187248;22;90427;-74
2021/12/28 07:22:42;;;;;;;11.43;3.17;;;7.60;99.90;;;;;;6187356;22;89191;-74
2021/12/28 07:25:10;;;;;;;6.47;2.50;;;7.50;99.90;;;;;;6187423;22;89362;-74
2021/12/28 07:27:37;;;;;;;6.32;2.58;;;7.60;99.90;;;;;;6187712;22;89161;-74
2021/12/28 07:30:06;;;;;;;8.00;2.42;;;7.60;99.90;;;;;;6160740;22;89925;-74
2021/12/28 07:32:32;;;;;;;7.90;2.30;;;7.60;99.90;;;;;;6188843;22;89001;-74
2021/12/28 07:34:57;;;;;;;6.30;2.55;;;7.60;99.90;;;;;;6189043;22;90264;-74
2021/12/28 07:37:23;;;;;;;5.30;2.10;;;7.60;99.90;;;;;;6188820;22;90425;-74
2021/12/28 07:39:50;;;;;;;7.90;2.83;;;7.60;99.90;;;;;;6188440;22;90010;-74
2021/12/28 07:42:17;;;;;;;8.63;2.50;;;7.60;99.90;;;;;;6160131;22;90159;-74
2021/12/28 07:44:43;;;;;;;3.88;2.20;;;7.70;99.90;;;;;;6188669;22;90107;-74
2021/12/28 07:47:09;;;;;;;5.00;2.40;;;7.70;99.90;;;;;;6188823;22;89049;-74
2021/12/28 07:49:34;;;;;;;4.55;2.15;;;7.70;99.90;;;;;;6161251;22;92192;-74
2021/12/28 07:52:00;;;;;;;3.58;1.95;;;7.80;99.90;;;;;;6161439;22;89785;-74
2021/12/28 07:54:26;;;;;;;3.97;2.30;;;7.80;99.90;;;;;;6188564;22;89527;-74
2021/12/28 07:56:51;;;;;;;3.97;2.20;;;7.80;99.90;;;;;;6188641;22;89122;-74
2021/12/28 07:59:17;;;;;;;7.15;2.15;;;7.90;99.90;;;;;;6161713;22;91659;-74
2021/12/28 08:01:43;;;;;;;4.78;1.80;;;7.90;99.90;;;;;;6161803;22;89177;-75
2021/12/28 08:04:08;;;;;;;5.70;1.77;;;8.00;99.90;;;;;;6188374;22;89676;-74
2021/12/28 08:06:34;;;;;;;3.15;1.85;;;8.10;99.90;;;;;;6188172;22;90596;-74
2021/12/28 08:08:59;;;;;;;4.47;1.80;;;8.10;99.90;;;;;;6188009;22;90427;-75
2021/12/28 08:11:25;;;;;;;2.90;1.58;;;8.20;99.90;;;;;;6161177;22;89484;-74
2021/12/28 08:13:51;;;;;;;6.45;1.80;;;8.20;99.90;;;;;;6161131;22;91622;-74
2021/12/28 08:16:17;;;;;;;4.38;1.55;;;8.20;99.90;;;;;;6188482;22;89976;-74
2021/12/28 08:18:42;;;;;;;3.55;1.50;;;8.20;99.90;;;;;;6188289;22;90084;-74
2021/12/28 08:21:08;;;;;;;2.28;1.50;;;8.20;99.90;;;;;;6161679;22;89214;-74
2021/12/28 08:23:33;;;;;;;2.67;1.30;;;8.20;99.90;;;;;;6161468;22;92425;-74
2021/12/28 08:25:59;;;;;;;3.58;1.50;;;8.20;99.90;;;;;;6188459;22;89182;-74
2021/12/28 08:28:25;;;;;;;2.95;1.58;;;8.20;99.90;;;;;;6188486;22;89136;-75
2021/12/28 08:30:50;;;;;;;3.80;2.15;;;8.20;99.90;;;;;;6160948;22;90450;-75
2021/12/28 08:33:16;;;;;;;2.55;1.27;;;8.20;99.90;;;;;;6187811;22;89521;-74
2021/12/28 08:35:42;;;;;;;2.92;1.38;;;8.20;99.90;;;;;;6188407;22;89956;-75
2021/12/28 08:38:10;;;;;;;4.70;1.83;;;8.20;99.90;;;;;;6188529;22;89873;-74
2021/12/28 08:40:37;;;;;;;3.85;1.60;;;8.20;99.90;;;;;;6187430;22;89194;-74
2021/12/28 08:43:03;;;;;;;5.22;1.55;;;8.30;99.90;;;;;;6188216;22;89667;-74
2021/12/28 08:45:29;;;;;;;2.75;1.33;;;8.20;99.90;;;;;;6188403;22;89206;-74
2021/12/28 08:47:54;;;;;;;3.10;1.25;;;8.30;99.90;;;;;;6188695;22;90741;-74
2021/12/28 08:50:22;;;;;;;4.45;1.50;;;8.30;99.90;;;;;;6188551;22;89263;-74
2021/12/28 08:52:48;;;;;;;5.50;1.45;;;8.30;99.90;;;;;;6187902;22;89181;-76
2021/12/28 08:55:14;;;;;;;2.25;1.17;;;8.30;99.90;;;;;;6187636;22;90156;-76
2021/12/28 08:57:40;;;;;;;4.20;1.48;;;8.40;99.90;;;;;;6188420;22;89531;-74
2021/12/28 09:00:23;;;;;;;5.88;1.48;;;8.40;99.90;;;;;;6188521;22;89225;-74
2021/12/28 09:02:50;;;;;;;3.95;1.50;;;8.50;99.90;;;;;;6188033;22;89111;-74
2021/12/28 09:05:16;;;;;;;3.08;1.20;;;8.70;99.90;;;;;;6188362;22;89347;-74
2021/12/28 09:07:42;;;;;;;3.15;1.30;;;8.80;99.90;;;;;;6160619;22;89917;-73
2021/12/28 09:10:08;;;;;;;3.28;1.48;;;9.10;99.90;;;;;;6188161;22;89292;-73
2021/12/28 09:12:33;;;;;;;1.60;1.15;;;9.10;99.90;;;;;;6161086;22;93396;-73
2021/12/28 09:14:59;;;;;;;3.92;1.00;;;9.10;99.90;;;;;;6188108;22;89900;-73
2021/12/28 09:17:24;;;;;;;3.17;1.08;;;9.10;99.90;;;;;;6188380;22;89832;-73
2021/12/28 09:19:50;;;;;;;3.65;0.90;;;8.90;99.90;;;;;;6187888;22;90088;-75
2021/12/28 09:22:16;;;;;;;2.45;0.90;;;8.90;99.90;;;;;;6188851;22;89236;-74
2021/12/28 09:24:41;;;;;;;3.33;1.10;;;8.90;99.90;;;;;;6161216;22;91971;-75
2021/12/28 09:27:07;;;;;;;1.75;1.00;;;8.90;99.90;;;;;;6191903;22;89000;-76
2021/12/28 09:29:33;;;;;;;2.28;1.10;;;8.90;99.90;;;;;;6188053;22;89319;-75
2021/12/28 09:32:00;;;;;;;1.55;0.95;;;8.90;99.90;;;;;;6187904;22;90005;-74
2021/12/28 09:34:26;;;;;;;2.30;1.20;;;8.90;99.90;;;;;;6187594;22;90006;-74
2021/12/28 09:36:53;;;;;;;3.13;0.82;;;8.90;99.90;;;;;;6189885;22;89406;-74
2021/12/28 09:39:24;;;;;;;2.47;1.08;;;9.00;99.90;;;;;;6187955;22;89123;-74
2021/12/28 09:41:52;;;;;;;1.17;1.02;;;9.00;99.90;;;;;;6187954;22;89467;-74
2021/12/28 09:44:17;;;;;;;4.18;0.85;;;9.00;99.90;;;;;;6186961;22;90388;-74
2021/12/28 09:46:43;;;;;;;2.88;1.10;;;9.00;99.90;;;;;;6187963;22;90968;-73
2021/12/28 09:49:08;;;;;;;1.67;1.00;;;9.00;99.90;;;;;;6188003;22;89454;-74
2021/12/28 09:51:34;;;;;;;1.83;0.98;;;9.00;99.90;;;;;;6188037;22;89540;-74
2021/12/28 09:54:00;;;;;;;1.13;0.82;;;9.10;99.90;;;;;;6187750;22;89998;-73
2021/12/28 09:56:26;;;;;;;1.77;0.90;;;9.20;99.90;;;;;;6188127;22;89152;-73
2021/12/28 09:58:52;;;;;;;1.90;0.70;;;9.20;99.90;;;;;;6188222;22;89167;-74
2021/12/28 10:01:20;;;;;;;2.88;1.02;;;9.10;99.90;;;;;;6189124;22;89279;-74
2021/12/28 10:03:46;;;;;;;1.20;0.80;;;9.10;99.90;;;;;;6188047;22;89209;-75
2021/12/28 10:06:22;;;;;;;1.88;0.90;;;9.20;99.90;;;;;;6188536;22;89527;-74
2021/12/28 10:09:03;;;;;;;1.42;0.77;;;9.20;99.90;;;;;;6187640;22;90144;-74
2021/12/28 10:11:37;;;;;;;0.50;0.50;;;9.30;99.90;;;;;;6187959;22;89797;-74
2021/12/28 10:14:18;;;;;;;1.08;0.60;;;9.30;99.90;;;;;;6186917;22;89144;-74
2021/12/28 10:16:45;;;;;;;1.67;0.82;;;9.30;99.90;;;;;;6187154;22;89861;-76
2021/12/28 10:19:39;;;;;;;2.30;0.98;;;9.30;99.90;;;;;;6187975;22;89139;-74
2021/12/28 10:22:32;;;;;;;1.05;0.70;;;9.30;99.90;;;;;;6187941;22;89277;-75
2021/12/28 10:25:15;;;;;;;2.67;1.10;;;9.30;99.90;;;;;;6187785;22;90324;-75
2021/12/28 10:27:46;;;;;;;1.30;0.70;;;9.30;99.90;;;;;;6161234;22;89836;-74
2021/12/28 10:30:21;;;;;;;0.60;0.60;;;9.40;99.90;;;;;;6188201;22;89204;-74
2021/12/28 10:32:49;;;;;;;2.53;0.68;;;9.40;99.90;;;;;;6162160;22;92803;-79
2021/12/28 10:35:25;;;;;;;0.82;0.68;;;9.40;99.90;;;;;;6188490;22;91063;-75
2021/12/28 10:38:12;;;;;;;1.02;0.70;;;9.40;99.90;;;;;;6189516;22;90545;-77
2021/12/28 10:40:49;;;;;;;2.05;0.60;;;9.50;99.90;;;;;;6190484;22;89217;-78
2021/12/28 10:43:16;;;;;;;6.72;1.90;;;9.40;99.90;;;;;;6187146;22;89013;-73
2021/12/28 10:45:59;;;;;;;11.05;3.65;;;9.50;99.90;;;;;;6187583;22;89233;-72
2021/12/28 10:48:38;;;;;;;8.35;2.90;;;9.70;99.90;;;;;;6186892;22;89222;-75
2021/12/28 10:51:12;;;;;;;2.72;1.00;;;9.90;99.90;;;;;;6188367;22;89174;-70
2021/12/28 10:54:34;;;;;;;1.45;0.85;;;10.10;99.90;;;;;;6160851;22;91414;-71
2021/12/28 10:56:51;;;;;;;4.18;1.50;;;10.30;99.90;;;;;;6175362;22;90762;-70
2021/12/28 10:59:22;;;;;;;4.50;1.20;;;10.60;99.90;;;;;;6187751;22;89235;-70
2021/12/28 11:01:49;;;;;;;1.45;1.10;;;10.80;99.90;;;;;;6187393;22;90114;-69
2021/12/28 11:04:16;;;;;;;1.80;1.20;;;10.90;99.90;;;;;;6187140;22;89235;-69
2021/12/28 11:06:47;;;;;;;1.77;0.93;;;11.10;99.90;;;;;;6187630;22;90031;-69
2021/12/28 11:09:21;;;;;;;1.45;0.90;;;11.10;99.90;;;;;;6187677;22;89571;-69
2021/12/28 11:11:48;;;;;;;2.30;0.90;;;11.00;99.90;;;;;;6188068;22;89412;-70
2021/12/28 11:14:17;;;;;;;0.80;0.68;;;10.90;99.90;;;;;;6187421;22;89491;-71
2021/12/28 11:16:52;;;;;;;0.95;0.77;;;10.90;99.90;;;;;;6187917;22;90041;-69
2021/12/28 11:19:28;;;;;;;1.38;0.68;;;10.90;99.90;;;;;;6186952;22;88977;-69
2021/12/28 11:21:58;;;;;;;1.30;0.70;;;10.80;99.90;;;;;;6186933;22;89128;-69
2021/12/28 11:24:31;;;;;;;1.88;1.30;;;10.70;99.90;;;;;;6157916;22;91520;-69
2021/12/28 11:26:56;;;;;;;1.40;0.70;;;10.60;99.90;;;;;;6186842;22;90987;-68
2021/12/28 11:29:39;;;;;;;0.98;0.70;;;10.50;99.90;;;;;;6163055;22;93272;-70
2021/12/28 11:32:13;;;;;;;1.25;0.88;;;10.50;99.90;;;;;;6217708;22;89257;-70
2021/12/28 11:34:43;;;;;;;1.90;0.90;;;10.40;99.90;;;;;;6190493;22;91281;-71
2021/12/28 11:37:12;;;;;;;1.48;0.68;;;10.50;99.90;;;;;;6218314;22;89218;-70
2021/12/28 11:40:01;;;;;;;2.08;1.05;;;10.50;99.90;;;;;;6209573;22;89229;-70
2021/12/28 11:42:28;;;;;;;1.75;0.82;;;10.60;99.90;;;;;;6158320;22;89947;-71
2021/12/28 11:44:53;;;;;;;2.45;1.10;;;10.60;99.90;;;;;;6188218;22;89738;-72
2021/12/28 11:47:20;;;;;;;1.60;1.10;;;10.60;99.90;;;;;;6187495;22;89661;-71
2021/12/28 11:49:47;;;;;;;1.48;0.95;;;10.60;99.90;;;;;;6187240;22;90415;-72
2021/12/28 11:52:16;;;;;;;2.08;0.80;;;10.70;99.90;;;;;;6186745;22;90194;-71
2021/12/28 11:54:47;;;;;;;3.42;1.50;;;10.70;99.90;;;;;;6187332;22;89319;-71
2021/12/28 11:57:26;;;;;;;1.75;1.20;;;10.70;99.90;;;;;;6187470;22;89537;-71
2021/12/28 11:59:54;;;;;;;2.70;0.95;;;10.70;99.90;;;;;;6187171;22;89519;-71
2021/12/28 12:02:20;;;;;;;2.25;0.82;;;10.70;99.90;;;;;;6187096;22;89210;-72
2021/12/28 12:04:51;;;;;;;6.50;2.05;;;10.70;99.90;;;;;;6187386;22;89328;-74
2021/12/28 12:07:19;;;;;;;3.25;1.40;;;10.80;99.90;;;;;;6187291;22;90669;-71
2021/12/28 12:09:51;;;;;;;1.40;1.10;;;10.70;99.90;;;;;;6160282;22;91515;-72
2021/12/28 12:12:26;;;;;;;1.80;1.08;;;10.70;99.90;;;;;;6187340;22;89278;-72
2021/12/28 12:14:52;;;;;;;4.28;1.50;;;10.70;99.90;;;;;;6187636;22;89806;-73
2021/12/28 12:17:45;;;;;;;1.95;1.10;;;10.60;99.90;;;;;;6160272;22;93042;-74
2021/12/28 12:20:13;;;;;;;2.88;1.42;;;10.60;99.90;;;;;;6188498;22;90004;-72
2021/12/28 12:22:42;;;;;;;1.70;0.98;;;10.70;99.90;;;;;;6161434;22;89239;-72
2021/12/28 12:25:08;;;;;;;1.02;0.93;;;10.70;99.90;;;;;;6188663;22;89131;-72
2021/12/28 12:27:46;;;;;;;1.40;1.13;;;10.80;99.90;;;;;;6187422;22;89244;-72
2021/12/28 12:30:17;;;;;;;1.33;1.00;;;10.80;99.90;;;;;;6187999;22;89147;-72
2021/12/28 12:32:58;;;;;;;1.33;0.80;;;11.00;99.90;;;;;;6188521;22;89507;-72
2021/12/28 12:35:34;;;;;;;1.30;0.90;;;11.10;99.90;;;;;;6161425;22;92452;-72
2021/12/28 12:38:02;;;;;;;1.60;0.95;;;11.10;99.90;;;;;;6160988;22;91229;-72
2021/12/28 12:41:04;;;;;;;1.70;1.02;;;11.20;99.90;;;;;;6188338;22;89144;-72
2021/12/28 12:43:39;;;;;;;2.42;0.90;;;11.30;99.90;;;;;;6187869;22;90469;-72
2021/12/28 12:46:24;;;;;;;2.67;0.90;;;11.30;99.90;;;;;;6188643;22;89280;-72
2021/12/28 12:48:50;;;;;;;1.55;0.90;;;11.20;99.90;;;;;;6189093;22;89126;-72
2021/12/28 12:51:26;;;;;;;2.97;1.00;;;11.10;99.90;;;;;;6160948;22;91684;-72
2021/12/28 12:54:08;;;;;;;3.03;1.10;;;11.00;99.90;;;;;;6190939;22;89079;-72